createdAt,value
2018-11-26T00:04:53.913Z,5.30
2018-11-26T00:07:29.199Z,5.40
2018-11-26T00:11:18.121Z,5.40
2018-11-26T00:14:02.913Z,5.40
2018-11-26T00:16:44.097Z,5.40
2018-11-26T00:19:21.555Z,5.40
2018-11-26T00:21:57.456Z,5.40
2018-11-26T00:24:55.633Z,5.40
2018-11-26T00:27:48.768Z,5.40
2018-11-26T00:30:44.772Z,5.30
2018-11-26T00:33:43.985Z,5.40
2018-11-26T00:36:38.021Z,5.40
2018-11-26T00:39:33.573Z,5.40
2018-11-26T00:42:07.087Z,5.40
2018-11-26T00:44:49.792Z,5.40
2018-11-26T00:47:44.434Z,5.40
2018-11-26T00:50:40.504Z,5.40
2018-11-26T00:53:21.060Z,5.40
2018-11-26T00:56:01.141Z,5.40
2018-11-26T01:04:36.475Z,5.40
2018-11-26T01:07:29.052Z,5.40
2018-11-26T01:10:20.970Z,5.40
2018-11-26T01:16:00.094Z,5.40
2018-11-26T01:18:43.084Z,5.40
2018-11-26T01:21:34.861Z,5.40
2018-11-26T01:26:58.840Z,5.40
2018-11-26T01:29:43.073Z,5.40
2018-11-26T01:32:32.795Z,5.40
2018-11-26T01:35:32.112Z,5.40
2018-11-26T01:41:22.635Z,5.40
2018-11-26T01:44:21.713Z,5.40
2018-11-26T01:50:00.673Z,5.40
2018-11-26T01:55:58.401Z,5.30
2018-11-26T01:58:52.545Z,5.30
2018-11-26T02:07:53.433Z,5.30
2018-11-26T02:10:45.317Z,5.30
2018-11-26T02:14:00.427Z,5.30
2018-11-26T02:16:51.810Z,5.30
2018-11-26T02:19:38.436Z,5.30
2018-11-26T02:22:24.075Z,5.30
2018-11-26T02:25:06.433Z,5.30
2018-11-26T02:27:57.653Z,5.30
2018-11-26T02:30:50.074Z,5.30
2018-11-26T02:36:44.813Z,5.30
2018-11-26T02:39:30.233Z,5.20
2018-11-26T02:42:18.639Z,5.30
2018-11-26T02:53:57.252Z,5.20
2018-11-26T02:56:52.539Z,5.20
2018-11-26T02:59:44.957Z,5.20
2018-11-26T03:02:25.393Z,5.30
2018-11-26T03:08:00.582Z,5.20
2018-11-26T03:13:28.776Z,5.20
2018-11-26T03:16:02.254Z,5.20
2018-11-26T03:18:39.845Z,5.20
2018-11-26T03:21:26.595Z,5.30
2018-11-26T03:24:33.605Z,5.20
2018-11-26T03:27:34.873Z,5.20
2018-11-26T03:30:31.652Z,5.20
2018-11-26T03:33:53.789Z,5.20
2018-11-26T03:36:51.184Z,5.20
2018-11-26T03:43:03.474Z,5.20
2018-11-26T03:46:00.924Z,5.20
2018-11-26T03:48:42.482Z,5.20
2018-11-26T03:51:25.533Z,5.20
2018-11-26T03:53:59.834Z,5.20
2018-11-26T03:56:37.434Z,5.20
2018-11-26T04:02:17.234Z,5.20
2018-11-26T04:04:54.033Z,5.20
2018-11-26T04:07:33.556Z,5.20
2018-11-26T04:10:13.412Z,5.20
2018-11-26T04:12:57.373Z,5.20
2018-11-26T04:15:32.530Z,5.20
2018-11-26T04:18:11.220Z,5.20
2018-11-26T04:20:47.773Z,5.20
2018-11-26T04:23:34.361Z,5.20
2018-11-26T05:18:19.698Z,5.50
2018-11-26T05:40:37.784Z,5.50
2018-11-26T05:43:09.069Z,5.50
2018-11-26T05:45:40.405Z,5.50
2018-11-26T05:48:11.428Z,5.50
2018-11-26T05:53:50.184Z,5.50
2018-11-26T05:56:37.175Z,5.50
2018-11-26T06:02:08.358Z,5.40
2018-11-26T14:06:46.806Z,6.70
2018-11-26T14:09:28.701Z,6.10
2018-11-26T14:11:59.538Z,6.10
2018-11-26T14:14:30.112Z,6.10
2018-11-26T14:17:00.695Z,6.10
2018-11-26T14:19:31.139Z,6.10
2018-11-26T14:22:02.318Z,6.00
2018-11-26T14:24:32.977Z,6.00
2018-11-26T14:27:03.577Z,6.00
2018-11-26T14:29:34.202Z,6.00
2018-11-26T16:03:02.244Z,5.70
2018-11-26T16:11:32.086Z,5.30
2018-11-26T16:14:07.710Z,5.30
2018-11-26T16:17:08.992Z,5.30
2018-11-26T16:19:39.987Z,5.30
2018-11-26T17:45:42.746Z,4.90
2018-11-26T18:04:01.563Z,4.90
2018-11-26T18:12:31.924Z,4.90
2018-11-26T18:15:02.641Z,4.90
2018-11-26T18:17:33.210Z,4.90
2018-11-26T18:20:05.126Z,4.90
2018-11-26T18:50:18.201Z,4.90
2018-11-26T18:52:53.740Z,4.90
2018-11-26T19:25:18.193Z,5.00
2018-11-26T19:28:25.630Z,5.00
2018-11-26T19:30:56.439Z,5.00
2018-11-26T20:27:36.072Z,5.00
2018-11-26T20:30:24.250Z,5.00
